Crieff, United Kingdom
Current Conditions -  °F | °C
As of 10:50 AM on Friday 28 Nov 2014 (Local Time) from EGPN Reporting Station
Haze Haze  
Wind Chill: 50°   Ceiling: 4500
Heat Index: 50°   Visibility: 3mi
Dew Point: 50°   Wind: 7mph
Humidity: 100%   Direction: 70°ENE
Pressure: 29.8"   Gusts: NA
Location:  56.37°N, 3.84°W
Report Text: EGPN 281050Z 07006KT 5000 BR SCT007 BKN045 10/10 Q1009
Loading
Personal Weather Stations






























Interactive Weather Map New forecast layout! Learn more

10-Day Weather Forecast

Advertisements
Track Severe Weather on mobile